sensor_id;sensor_type;location;lat;lon;timestamp;P1;durP1;ratioP1;P2;durP2;ratioP2
34737;SDS011;39910;47.154;27.614;2024-03-02T00:02:12;11.23;;;10.73;;
34737;SDS011;39910;47.154;27.614;2024-03-02T00:04:38;11.05;;;10.55;;
34737;SDS011;39910;47.154;27.614;2024-03-02T00:07:03;11.00;;;10.50;;
34737;SDS011;39910;47.154;27.614;2024-03-02T00:09:29;11.00;;;10.50;;
34737;SDS011;39910;47.154;27.614;2024-03-02T00:11:54;11.35;;;10.85;;
34737;SDS011;39910;47.154;27.614;2024-03-02T00:14:20;10.95;;;10.45;;
34737;SDS011;39910;47.154;27.614;2024-03-02T00:16:45;11.70;;;11.10;;
34737;SDS011;39910;47.154;27.614;2024-03-02T00:19:11;11.25;;;10.75;;
34737;SDS011;39910;47.154;27.614;2024-03-02T00:21:36;10.65;;;10.15;;
34737;SDS011;39910;47.154;27.614;2024-03-02T00:24:06;10.77;;;10.27;;
34737;SDS011;39910;47.154;27.614;2024-03-02T00:26:33;10.90;;;10.40;;
34737;SDS011;39910;47.154;27.614;2024-03-02T00:28:59;11.30;;;10.80;;
34737;SDS011;39910;47.154;27.614;2024-03-02T00:31:25;11.07;;;10.57;;
34737;SDS011;39910;47.154;27.614;2024-03-02T00:33:51;10.68;;;10.18;;
34737;SDS011;39910;47.154;27.614;2024-03-02T00:36:21;10.80;;;10.30;;
34737;SDS011;39910;47.154;27.614;2024-03-02T00:38:48;11.05;;;10.55;;
34737;SDS011;39910;47.154;27.614;2024-03-02T00:41:24;10.80;;;10.30;;
34737;SDS011;39910;47.154;27.614;2024-03-02T00:44:02;10.48;;;9.98;;
34737;SDS011;39910;47.154;27.614;2024-03-02T00:46:29;10.88;;;10.38;;
34737;SDS011;39910;47.154;27.614;2024-03-02T00:49:03;10.52;;;10.02;;
34737;SDS011;39910;47.154;27.614;2024-03-02T00:51:29;11.10;;;10.60;;
34737;SDS011;39910;47.154;27.614;2024-03-02T00:53:59;10.90;;;10.40;;
34737;SDS011;39910;47.154;27.614;2024-03-02T00:56:24;10.75;;;10.25;;
34737;SDS011;39910;47.154;27.614;2024-03-02T00:58:50;10.70;;;10.20;;
34737;SDS011;39910;47.154;27.614;2024-03-02T01:01:16;11.20;;;10.70;;
34737;SDS011;39910;47.154;27.614;2024-03-02T01:03:41;11.23;;;10.73;;
34737;SDS011;39910;47.154;27.614;2024-03-02T01:06:07;10.85;;;10.35;;
34737;SDS011;39910;47.154;27.614;2024-03-02T01:08:33;11.00;;;10.50;;
34737;SDS011;39910;47.154;27.614;2024-03-02T01:10:58;10.85;;;10.35;;
34737;SDS011;39910;47.154;27.614;2024-03-02T01:13:24;10.70;;;10.20;;
34737;SDS011;39910;47.154;27.614;2024-03-02T01:15:49;11.02;;;10.52;;
34737;SDS011;39910;47.154;27.614;2024-03-02T01:18:15;10.70;;;10.20;;
34737;SDS011;39910;47.154;27.614;2024-03-02T01:20:40;10.73;;;10.23;;
34737;SDS011;39910;47.154;27.614;2024-03-02T01:23:06;10.45;;;9.95;;
34737;SDS011;39910;47.154;27.614;2024-03-02T01:25:31;10.63;;;10.13;;
34737;SDS011;39910;47.154;27.614;2024-03-02T01:27:57;10.95;;;10.45;;
34737;SDS011;39910;47.154;27.614;2024-03-02T01:30:22;10.93;;;10.43;;
34737;SDS011;39910;47.154;27.614;2024-03-02T01:32:48;10.77;;;10.27;;
34737;SDS011;39910;47.154;27.614;2024-03-02T01:35:13;10.48;;;9.98;;
34737;SDS011;39910;47.154;27.614;2024-03-02T01:37:40;10.85;;;10.35;;
34737;SDS011;39910;47.154;27.614;2024-03-02T01:40:05;10.60;;;10.10;;
34737;SDS011;39910;47.154;27.614;2024-03-02T01:42:37;10.57;;;10.07;;
34737;SDS011;39910;47.154;27.614;2024-03-02T01:45:06;10.40;;;9.90;;
34737;SDS011;39910;47.154;27.614;2024-03-02T01:47:31;10.38;;;9.88;;
34737;SDS011;39910;47.154;27.614;2024-03-02T01:49:57;10.43;;;9.93;;
34737;SDS011;39910;47.154;27.614;2024-03-02T01:52:23;10.65;;;10.15;;
34737;SDS011;39910;47.154;27.614;2024-03-02T01:54:48;11.07;;;10.57;;
34737;SDS011;39910;47.154;27.614;2024-03-02T01:57:14;10.52;;;10.02;;
34737;SDS011;39910;47.154;27.614;2024-03-02T01:59:39;10.45;;;9.95;;
34737;SDS011;39910;47.154;27.614;2024-03-02T02:02:05;10.88;;;10.38;;
34737;SDS011;39910;47.154;27.614;2024-03-02T02:04:30;11.00;;;10.50;;
34737;SDS011;39910;47.154;27.614;2024-03-02T02:06:56;10.63;;;10.13;;
34737;SDS011;39910;47.154;27.614;2024-03-02T02:09:21;10.30;;;9.82;;
34737;SDS011;39910;47.154;27.614;2024-03-02T02:11:47;10.68;;;10.18;;
34737;SDS011;39910;47.154;27.614;2024-03-02T02:14:12;10.57;;;10.07;;
34737;SDS011;39910;47.154;27.614;2024-03-02T02:16:37;10.60;;;10.10;;
34737;SDS011;39910;47.154;27.614;2024-03-02T02:19:03;10.88;;;10.38;;
34737;SDS011;39910;47.154;27.614;2024-03-02T02:21:28;10.65;;;10.15;;
34737;SDS011;39910;47.154;27.614;2024-03-02T02:23:54;10.65;;;10.15;;
34737;SDS011;39910;47.154;27.614;2024-03-02T02:26:19;11.15;;;10.65;;
34737;SDS011;39910;47.154;27.614;2024-03-02T02:28:44;10.60;;;10.10;;
34737;SDS011;39910;47.154;27.614;2024-03-02T02:31:14;10.82;;;10.32;;
34737;SDS011;39910;47.154;27.614;2024-03-02T02:33:40;10.82;;;10.32;;
34737;SDS011;39910;47.154;27.614;2024-03-02T02:36:05;10.77;;;10.27;;
34737;SDS011;39910;47.154;27.614;2024-03-02T02:38:32;10.98;;;10.48;;
34737;SDS011;39910;47.154;27.614;2024-03-02T02:40:58;11.05;;;10.55;;
34737;SDS011;39910;47.154;27.614;2024-03-02T02:43:23;10.52;;;10.02;;
34737;SDS011;39910;47.154;27.614;2024-03-02T02:45:49;10.80;;;10.30;;
34737;SDS011;39910;47.154;27.614;2024-03-02T02:48:14;10.63;;;10.13;;
34737;SDS011;39910;47.154;27.614;2024-03-02T02:50:39;10.57;;;10.07;;
34737;SDS011;39910;47.154;27.614;2024-03-02T02:53:06;10.80;;;10.30;;
34737;SDS011;39910;47.154;27.614;2024-03-02T02:55:34;11.35;;;10.85;;
34737;SDS011;39910;47.154;27.614;2024-03-02T02:58:00;10.85;;;10.35;;
34737;SDS011;39910;47.154;27.614;2024-03-02T03:00:25;10.38;;;9.88;;
34737;SDS011;39910;47.154;27.614;2024-03-02T03:02:50;11.20;;;10.70;;
34737;SDS011;39910;47.154;27.614;2024-03-02T03:05:16;10.70;;;10.20;;
34737;SDS011;39910;47.154;27.614;2024-03-02T03:07:42;10.90;;;10.40;;
34737;SDS011;39910;47.154;27.614;2024-03-02T03:10:09;10.70;;;10.20;;
34737;SDS011;39910;47.154;27.614;2024-03-02T03:12:34;10.70;;;10.20;;
34737;SDS011;39910;47.154;27.614;2024-03-02T03:15:00;10.80;;;10.30;;
34737;SDS011;39910;47.154;27.614;2024-03-02T03:17:25;10.50;;;10.00;;
34737;SDS011;39910;47.154;27.614;2024-03-02T03:19:51;10.88;;;10.38;;
34737;SDS011;39910;47.154;27.614;2024-03-02T03:22:16;10.60;;;10.10;;
34737;SDS011;39910;47.154;27.614;2024-03-02T03:24:43;10.60;;;10.10;;
34737;SDS011;39910;47.154;27.614;2024-03-02T03:27:09;10.50;;;10.00;;
34737;SDS011;39910;47.154;27.614;2024-03-02T03:29:36;10.52;;;10.02;;
34737;SDS011;39910;47.154;27.614;2024-03-02T03:32:01;10.68;;;10.18;;
34737;SDS011;39910;47.154;27.614;2024-03-02T03:34:27;10.98;;;10.48;;
34737;SDS011;39910;47.154;27.614;2024-03-02T03:36:54;10.40;;;9.90;;
34737;SDS011;39910;47.154;27.614;2024-03-02T03:39:19;10.45;;;9.95;;
34737;SDS011;39910;47.154;27.614;2024-03-02T03:41:44;10.23;;;9.80;;
34737;SDS011;39910;47.154;27.614;2024-03-02T03:44:10;11.07;;;10.57;;
34737;SDS011;39910;47.154;27.614;2024-03-02T03:46:35;10.93;;;10.43;;
34737;SDS011;39910;47.154;27.614;2024-03-02T03:49:01;10.60;;;10.10;;
34737;SDS011;39910;47.154;27.614;2024-03-02T03:51:26;10.73;;;10.23;;
34737;SDS011;39910;47.154;27.614;2024-03-02T03:53:51;11.32;;;10.82;;
34737;SDS011;39910;47.154;27.614;2024-03-02T03:56:17;11.07;;;10.57;;
34737;SDS011;39910;47.154;27.614;2024-03-02T03:58:42;10.95;;;10.45;;
34737;SDS011;39910;47.154;27.614;2024-03-02T04:01:07;10.90;;;10.40;;
34737;SDS011;39910;47.154;27.614;2024-03-02T04:03:33;11.00;;;10.50;;
34737;SDS011;39910;47.154;27.614;2024-03-02T04:05:58;10.70;;;10.20;;
34737;SDS011;39910;47.154;27.614;2024-03-02T04:08:24;10.50;;;10.00;;
34737;SDS011;39910;47.154;27.614;2024-03-02T04:10:49;11.30;;;10.80;;
34737;SDS011;39910;47.154;27.614;2024-03-02T04:13:15;10.60;;;10.10;;
34737;SDS011;39910;47.154;27.614;2024-03-02T04:15:40;10.50;;;10.00;;
34737;SDS011;39910;47.154;27.614;2024-03-02T04:18:06;10.75;;;10.25;;
34737;SDS011;39910;47.154;27.614;2024-03-02T04:20:31;10.68;;;10.18;;
34737;SDS011;39910;47.154;27.614;2024-03-02T04:22:56;10.60;;;10.10;;
34737;SDS011;39910;47.154;27.614;2024-03-02T04:25:22;10.90;;;10.40;;
34737;SDS011;39910;47.154;27.614;2024-03-02T04:27:47;10.55;;;10.05;;
34737;SDS011;39910;47.154;27.614;2024-03-02T04:30:13;10.98;;;10.48;;
34737;SDS011;39910;47.154;27.614;2024-03-02T04:32:38;10.60;;;10.10;;
34737;SDS011;39910;47.154;27.614;2024-03-02T04:35:04;11.35;;;10.85;;
34737;SDS011;39910;47.154;27.614;2024-03-02T04:37:32;10.90;;;10.40;;
34737;SDS011;39910;47.154;27.614;2024-03-02T04:39:58;10.63;;;10.13;;
34737;SDS011;39910;47.154;27.614;2024-03-02T04:42:23;10.70;;;10.20;;
34737;SDS011;39910;47.154;27.614;2024-03-02T04:44:49;10.40;;;9.90;;
34737;SDS011;39910;47.154;27.614;2024-03-02T04:47:15;10.52;;;10.02;;
34737;SDS011;39910;47.154;27.614;2024-03-02T04:49:40;10.70;;;10.20;;
34737;SDS011;39910;47.154;27.614;2024-03-02T04:52:05;10.65;;;10.15;;
34737;SDS011;39910;47.154;27.614;2024-03-02T04:54:31;10.45;;;9.95;;
34737;SDS011;39910;47.154;27.614;2024-03-02T04:56:56;10.85;;;10.35;;
34737;SDS011;39910;47.154;27.614;2024-03-02T04:59:22;10.52;;;10.02;;
34737;SDS011;39910;47.154;27.614;2024-03-02T05:01:47;10.15;;;9.68;;
34737;SDS011;39910;47.154;27.614;2024-03-02T05:04:13;10.85;;;10.35;;
34737;SDS011;39910;47.154;27.614;2024-03-02T05:06:39;10.55;;;10.05;;
34737;SDS011;39910;47.154;27.614;2024-03-02T05:09:07;10.30;;;9.80;;
34737;SDS011;39910;47.154;27.614;2024-03-02T05:11:33;10.50;;;10.00;;
34737;SDS011;39910;47.154;27.614;2024-03-02T05:14:04;10.90;;;10.40;;
34737;SDS011;39910;47.154;27.614;2024-03-02T05:16:36;12.05;;;11.45;;
34737;SDS011;39910;47.154;27.614;2024-03-02T05:19:03;10.55;;;10.05;;
34737;SDS011;39910;47.154;27.614;2024-03-02T05:21:29;10.43;;;9.93;;
34737;SDS011;39910;47.154;27.614;2024-03-02T05:23:54;10.77;;;10.27;;
34737;SDS011;39910;47.154;27.614;2024-03-02T05:26:19;10.82;;;10.32;;
34737;SDS011;39910;47.154;27.614;2024-03-02T05:28:45;10.52;;;10.02;;
34737;SDS011;39910;47.154;27.614;2024-03-02T05:31:10;10.27;;;9.77;;
34737;SDS011;39910;47.154;27.614;2024-03-02T05:33:39;10.00;;;9.60;;
34737;SDS011;39910;47.154;27.614;2024-03-02T05:36:05;10.65;;;10.15;;
34737;SDS011;39910;47.154;27.614;2024-03-02T05:38:31;10.38;;;9.88;;
34737;SDS011;39910;47.154;27.614;2024-03-02T05:40:57;10.68;;;10.18;;
34737;SDS011;39910;47.154;27.614;2024-03-02T05:43:22;10.38;;;9.88;;
34737;SDS011;39910;47.154;27.614;2024-03-02T05:45:48;10.25;;;9.77;;
34737;SDS011;39910;47.154;27.614;2024-03-02T05:48:13;10.55;;;10.05;;
34737;SDS011;39910;47.154;27.614;2024-03-02T05:50:38;11.20;;;10.70;;
34737;SDS011;39910;47.154;27.614;2024-03-02T05:53:04;10.60;;;10.10;;
34737;SDS011;39910;47.154;27.614;2024-03-02T05:55:29;10.40;;;9.90;;
34737;SDS011;39910;47.154;27.614;2024-03-02T05:57:54;10.80;;;10.30;;
34737;SDS011;39910;47.154;27.614;2024-03-02T06:00:32;11.23;;;10.73;;
34737;SDS011;39910;47.154;27.614;2024-03-02T06:02:58;10.98;;;10.48;;
34737;SDS011;39910;47.154;27.614;2024-03-02T06:05:23;10.82;;;10.32;;
34737;SDS011;39910;47.154;27.614;2024-03-02T06:07:49;10.68;;;10.18;;
34737;SDS011;39910;47.154;27.614;2024-03-02T06:10:15;10.30;;;9.82;;
34737;SDS011;39910;47.154;27.614;2024-03-02T06:12:40;10.63;;;10.13;;
34737;SDS011;39910;47.154;27.614;2024-03-02T06:15:06;11.00;;;10.50;;
34737;SDS011;39910;47.154;27.614;2024-03-02T06:17:31;10.95;;;10.45;;
34737;SDS011;39910;47.154;27.614;2024-03-02T06:19:57;10.63;;;10.13;;
34737;SDS011;39910;47.154;27.614;2024-03-02T06:22:23;10.75;;;10.25;;
34737;SDS011;39910;47.154;27.614;2024-03-02T06:24:50;11.20;;;10.70;;
34737;SDS011;39910;47.154;27.614;2024-03-02T06:27:15;10.90;;;10.40;;
34737;SDS011;39910;47.154;27.614;2024-03-02T06:29:41;11.27;;;10.77;;
34737;SDS011;39910;47.154;27.614;2024-03-02T06:32:07;10.80;;;10.30;;
34737;SDS011;39910;47.154;27.614;2024-03-02T06:34:32;10.32;;;9.82;;
34737;SDS011;39910;47.154;27.614;2024-03-02T06:36:57;10.77;;;10.27;;
34737;SDS011;39910;47.154;27.614;2024-03-02T06:39:23;11.35;;;10.85;;
34737;SDS011;39910;47.154;27.614;2024-03-02T06:41:48;10.55;;;10.05;;
34737;SDS011;39910;47.154;27.614;2024-03-02T06:44:13;10.57;;;10.07;;
34737;SDS011;39910;47.154;27.614;2024-03-02T06:46:39;10.18;;;9.77;;
34737;SDS011;39910;47.154;27.614;2024-03-02T06:49:04;10.90;;;10.40;;
34737;SDS011;39910;47.154;27.614;2024-03-02T06:51:29;10.98;;;10.48;;
34737;SDS011;39910;47.154;27.614;2024-03-02T06:53:55;10.95;;;10.45;;
34737;SDS011;39910;47.154;27.614;2024-03-02T06:56:20;10.75;;;10.25;;
34737;SDS011;39910;47.154;27.614;2024-03-02T06:58:46;11.10;;;10.60;;
34737;SDS011;39910;47.154;27.614;2024-03-02T07:01:12;10.45;;;9.95;;
34737;SDS011;39910;47.154;27.614;2024-03-02T07:03:37;10.68;;;10.18;;
34737;SDS011;39910;47.154;27.614;2024-03-02T07:06:04;10.98;;;10.48;;
34737;SDS011;39910;47.154;27.614;2024-03-02T07:08:30;10.80;;;10.30;;
34737;SDS011;39910;47.154;27.614;2024-03-02T07:10:55;10.52;;;10.02;;
34737;SDS011;39910;47.154;27.614;2024-03-02T07:13:22;10.70;;;10.20;;
34737;SDS011;39910;47.154;27.614;2024-03-02T07:15:47;11.20;;;10.70;;
34737;SDS011;39910;47.154;27.614;2024-03-02T07:18:22;11.00;;;10.50;;
34737;SDS011;39910;47.154;27.614;2024-03-02T07:20:47;10.75;;;10.25;;
34737;SDS011;39910;47.154;27.614;2024-03-02T07:23:14;10.82;;;10.32;;
34737;SDS011;39910;47.154;27.614;2024-03-02T07:25:39;11.15;;;10.65;;
34737;SDS011;39910;47.154;27.614;2024-03-02T07:28:05;10.80;;;10.30;;
34737;SDS011;39910;47.154;27.614;2024-03-02T07:30:32;10.90;;;10.40;;
34737;SDS011;39910;47.154;27.614;2024-03-02T07:32:57;10.88;;;10.38;;
34737;SDS011;39910;47.154;27.614;2024-03-02T07:35:23;10.75;;;10.25;;
34737;SDS011;39910;47.154;27.614;2024-03-02T07:37:52;11.10;;;10.60;;
34737;SDS011;39910;47.154;27.614;2024-03-02T07:40:18;11.02;;;10.52;;
34737;SDS011;39910;47.154;27.614;2024-03-02T07:42:43;11.27;;;10.77;;
34737;SDS011;39910;47.154;27.614;2024-03-02T07:45:08;10.80;;;10.30;;
34737;SDS011;39910;47.154;27.614;2024-03-02T07:47:34;10.77;;;10.27;;
34737;SDS011;39910;47.154;27.614;2024-03-02T07:50:00;11.20;;;10.70;;
34737;SDS011;39910;47.154;27.614;2024-03-02T07:52:25;10.90;;;10.40;;
34737;SDS011;39910;47.154;27.614;2024-03-02T07:54:50;10.90;;;10.40;;
34737;SDS011;39910;47.154;27.614;2024-03-02T07:57:16;11.77;;;11.18;;
34737;SDS011;39910;47.154;27.614;2024-03-02T07:59:41;11.20;;;10.70;;
34737;SDS011;39910;47.154;27.614;2024-03-02T08:02:07;11.00;;;10.50;;
34737;SDS011;39910;47.154;27.614;2024-03-02T08:04:33;10.63;;;10.13;;
34737;SDS011;39910;47.154;27.614;2024-03-02T08:06:58;11.40;;;10.90;;
34737;SDS011;39910;47.154;27.614;2024-03-02T08:09:23;11.50;;;10.98;;
34737;SDS011;39910;47.154;27.614;2024-03-02T08:11:49;11.40;;;10.90;;
34737;SDS011;39910;47.154;27.614;2024-03-02T08:14:14;10.95;;;10.45;;
34737;SDS011;39910;47.154;27.614;2024-03-02T08:16:40;10.80;;;10.30;;
34737;SDS011;39910;47.154;27.614;2024-03-02T08:19:05;11.80;;;11.20;;
34737;SDS011;39910;47.154;27.614;2024-03-02T08:21:31;11.90;;;11.30;;
34737;SDS011;39910;47.154;27.614;2024-03-02T08:23:57;11.15;;;10.65;;
34737;SDS011;39910;47.154;27.614;2024-03-02T08:26:23;11.13;;;10.63;;
34737;SDS011;39910;47.154;27.614;2024-03-02T08:28:48;11.00;;;10.50;;
34737;SDS011;39910;47.154;27.614;2024-03-02T08:31:14;12.30;;;11.70;;
34737;SDS011;39910;47.154;27.614;2024-03-02T08:33:39;11.80;;;11.20;;
34737;SDS011;39910;47.154;27.614;2024-03-02T08:36:05;11.10;;;10.60;;
34737;SDS011;39910;47.154;27.614;2024-03-02T08:38:31;11.45;;;10.95;;
34737;SDS011;39910;47.154;27.614;2024-03-02T08:40:56;11.60;;;11.00;;
34737;SDS011;39910;47.154;27.614;2024-03-02T08:43:22;11.45;;;10.95;;
34737;SDS011;39910;47.154;27.614;2024-03-02T08:45:50;12.00;;;11.40;;
34737;SDS011;39910;47.154;27.614;2024-03-02T08:48:16;11.77;;;11.18;;
34737;SDS011;39910;47.154;27.614;2024-03-02T08:50:41;11.40;;;10.90;;
34737;SDS011;39910;47.154;27.614;2024-03-02T08:53:06;11.90;;;11.30;;
34737;SDS011;39910;47.154;27.614;2024-03-02T08:55:32;11.38;;;10.88;;
34737;SDS011;39910;47.154;27.614;2024-03-02T08:57:57;12.07;;;11.48;;
34737;SDS011;39910;47.154;27.614;2024-03-02T09:00:23;11.68;;;11.10;;
34737;SDS011;39910;47.154;27.614;2024-03-02T09:02:48;11.77;;;11.18;;
34737;SDS011;39910;47.154;27.614;2024-03-02T09:05:14;11.90;;;11.30;;
34737;SDS011;39910;47.154;27.614;2024-03-02T09:07:39;11.75;;;11.15;;
34737;SDS011;39910;47.154;27.614;2024-03-02T09:10:05;11.93;;;11.32;;
34737;SDS011;39910;47.154;27.614;2024-03-02T09:12:31;12.10;;;11.50;;
34737;SDS011;39910;47.154;27.614;2024-03-02T09:14:56;12.27;;;11.68;;
34737;SDS011;39910;47.154;27.614;2024-03-02T09:17:22;11.20;;;10.70;;
34737;SDS011;39910;47.154;27.614;2024-03-02T09:19:48;11.32;;;10.82;;
34737;SDS011;39910;47.154;27.614;2024-03-02T09:22:13;12.00;;;11.40;;
34737;SDS011;39910;47.154;27.614;2024-03-02T09:24:38;12.00;;;11.40;;
34737;SDS011;39910;47.154;27.614;2024-03-02T09:27:04;11.88;;;11.27;;
34737;SDS011;39910;47.154;27.614;2024-03-02T09:29:30;11.98;;;11.38;;
34737;SDS011;39910;47.154;27.614;2024-03-02T09:31:56;11.65;;;11.07;;
34737;SDS011;39910;47.154;27.614;2024-03-02T09:34:21;12.23;;;11.63;;
34737;SDS011;39910;47.154;27.614;2024-03-02T09:36:47;11.90;;;11.30;;
34737;SDS011;39910;47.154;27.614;2024-03-02T09:39:12;11.32;;;10.82;;
34737;SDS011;39910;47.154;27.614;2024-03-02T09:41:38;10.80;;;10.30;;
34737;SDS011;39910;47.154;27.614;2024-03-02T09:44:04;11.05;;;10.55;;
34737;SDS011;39910;47.154;27.614;2024-03-02T09:46:29;11.30;;;10.80;;
34737;SDS011;39910;47.154;27.614;2024-03-02T09:48:55;11.18;;;10.68;;
34737;SDS011;39910;47.154;27.614;2024-03-02T09:51:20;11.02;;;10.52;;
34737;SDS011;39910;47.154;27.614;2024-03-02T09:53:46;12.50;;;11.90;;
34737;SDS011;39910;47.154;27.614;2024-03-02T09:56:12;11.43;;;10.93;;
34737;SDS011;39910;47.154;27.614;2024-03-02T09:58:38;11.20;;;10.70;;
34737;SDS011;39910;47.154;27.614;2024-03-02T10:01:05;12.05;;;11.45;;
34737;SDS011;39910;47.154;27.614;2024-03-02T10:03:30;11.98;;;11.38;;
34737;SDS011;39910;47.154;27.614;2024-03-02T10:06:18;11.40;;;10.90;;
34737;SDS011;39910;47.154;27.614;2024-03-02T10:08:43;11.10;;;10.60;;
34737;SDS011;39910;47.154;27.614;2024-03-02T10:11:09;11.90;;;11.30;;
34737;SDS011;39910;47.154;27.614;2024-03-02T10:13:34;11.48;;;10.98;;
34737;SDS011;39910;47.154;27.614;2024-03-02T10:15:59;11.30;;;10.80;;
34737;SDS011;39910;47.154;27.614;2024-03-02T10:18:36;11.00;;;10.50;;
34737;SDS011;39910;47.154;27.614;2024-03-02T10:21:13;11.45;;;10.95;;
34737;SDS011;39910;47.154;27.614;2024-03-02T10:23:40;11.65;;;11.10;;
34737;SDS011;39910;47.154;27.614;2024-03-02T10:26:16;11.23;;;10.73;;
34737;SDS011;39910;47.154;27.614;2024-03-02T10:28:45;11.88;;;11.27;;
34737;SDS011;39910;47.154;27.614;2024-03-02T10:31:12;11.50;;;10.98;;
34737;SDS011;39910;47.154;27.614;2024-03-02T10:33:37;11.98;;;11.38;;
34737;SDS011;39910;47.154;27.614;2024-03-02T10:36:03;12.43;;;11.82;;
34737;SDS011;39910;47.154;27.614;2024-03-02T10:38:29;11.32;;;10.82;;
34737;SDS011;39910;47.154;27.614;2024-03-02T10:40:55;11.57;;;11.02;;
34737;SDS011;39910;47.154;27.614;2024-03-02T10:43:24;11.93;;;11.32;;
34737;SDS011;39910;47.154;27.614;2024-03-02T10:45:50;11.60;;;11.10;;
34737;SDS011;39910;47.154;27.614;2024-03-02T10:48:16;12.55;;;11.95;;
34737;SDS011;39910;47.154;27.614;2024-03-02T10:50:41;11.50;;;11.00;;
34737;SDS011;39910;47.154;27.614;2024-03-02T10:53:06;11.75;;;11.15;;
34737;SDS011;39910;47.154;27.614;2024-03-02T10:55:32;11.30;;;10.80;;
34737;SDS011;39910;47.154;27.614;2024-03-02T10:57:58;12.27;;;11.68;;
34737;SDS011;39910;47.154;27.614;2024-03-02T11:00:27;12.00;;;11.40;;
34737;SDS011;39910;47.154;27.614;2024-03-02T11:03:00;11.70;;;11.15;;
34737;SDS011;39910;47.154;27.614;2024-03-02T11:05:27;11.95;;;11.35;;
34737;SDS011;39910;47.154;27.614;2024-03-02T11:07:56;11.30;;;10.80;;
34737;SDS011;39910;47.154;27.614;2024-03-02T11:10:22;11.48;;;10.98;;
34737;SDS011;39910;47.154;27.614;2024-03-02T11:12:50;11.77;;;11.18;;
34737;SDS011;39910;47.154;27.614;2024-03-02T11:15:18;11.38;;;10.88;;
34737;SDS011;39910;47.154;27.614;2024-03-02T11:17:46;11.00;;;10.50;;
34737;SDS011;39910;47.154;27.614;2024-03-02T11:20:12;12.02;;;11.43;;
34737;SDS011;39910;47.154;27.614;2024-03-02T11:22:38;11.50;;;11.00;;
34737;SDS011;39910;47.154;27.614;2024-03-02T11:25:04;11.07;;;10.57;;
34737;SDS011;39910;47.154;27.614;2024-03-02T11:30:23;11.70;;;11.18;;
34737;SDS011;39910;47.154;27.614;2024-03-02T11:32:55;11.98;;;11.38;;
34737;SDS011;39910;47.154;27.614;2024-03-02T11:35:21;11.32;;;10.82;;
34737;SDS011;39910;47.154;27.614;2024-03-02T11:37:46;11.10;;;10.60;;
34737;SDS011;39910;47.154;27.614;2024-03-02T11:40:12;11.55;;;11.05;;
34737;SDS011;39910;47.154;27.614;2024-03-02T11:42:37;11.52;;;11.02;;
34737;SDS011;39910;47.154;27.614;2024-03-02T11:45:03;11.50;;;11.00;;
34737;SDS011;39910;47.154;27.614;2024-03-02T11:47:31;11.63;;;11.13;;
34737;SDS011;39910;47.154;27.614;2024-03-02T11:49:56;12.05;;;11.45;;
34737;SDS011;39910;47.154;27.614;2024-03-02T11:52:22;11.55;;;11.05;;
34737;SDS011;39910;47.154;27.614;2024-03-02T11:54:47;11.52;;;11.02;;
34737;SDS011;39910;47.154;27.614;2024-03-02T11:57:15;12.13;;;11.52;;
34737;SDS011;39910;47.154;27.614;2024-03-02T11:59:41;12.20;;;11.60;;
34737;SDS011;39910;47.154;27.614;2024-03-02T12:02:06;12.10;;;11.50;;
34737;SDS011;39910;47.154;27.614;2024-03-02T12:04:37;12.25;;;11.65;;
34737;SDS011;39910;47.154;27.614;2024-03-02T12:07:03;12.27;;;11.68;;
34737;SDS011;39910;47.154;27.614;2024-03-02T12:09:29;12.55;;;11.95;;
34737;SDS011;39910;47.154;27.614;2024-03-02T12:12:01;11.95;;;11.35;;
34737;SDS011;39910;47.154;27.614;2024-03-02T12:14:26;12.02;;;11.43;;
34737;SDS011;39910;47.154;27.614;2024-03-02T12:16:54;11.32;;;10.82;;
34737;SDS011;39910;47.154;27.614;2024-03-02T12:19:20;12.45;;;11.85;;
34737;SDS011;39910;47.154;27.614;2024-03-02T12:21:46;12.13;;;11.52;;
34737;SDS011;39910;47.154;27.614;2024-03-02T12:24:11;12.52;;;11.93;;
34737;SDS011;39910;47.154;27.614;2024-03-02T12:26:36;12.20;;;11.60;;
34737;SDS011;39910;47.154;27.614;2024-03-02T12:29:02;11.60;;;11.10;;
34737;SDS011;39910;47.154;27.614;2024-03-02T12:31:27;12.38;;;11.77;;
34737;SDS011;39910;47.154;27.614;2024-03-02T12:33:53;11.68;;;11.18;;
34737;SDS011;39910;47.154;27.614;2024-03-02T12:36:19;11.90;;;11.30;;
34737;SDS011;39910;47.154;27.614;2024-03-02T12:38:44;11.75;;;11.25;;
34737;SDS011;39910;47.154;27.614;2024-03-02T12:41:10;11.85;;;11.27;;
34737;SDS011;39910;47.154;27.614;2024-03-02T12:43:35;12.30;;;11.70;;
34737;SDS011;39910;47.154;27.614;2024-03-02T12:46:00;12.23;;;11.63;;
34737;SDS011;39910;47.154;27.614;2024-03-02T12:48:26;12.43;;;11.82;;
34737;SDS011;39910;47.154;27.614;2024-03-02T12:50:52;11.52;;;11.02;;
34737;SDS011;39910;47.154;27.614;2024-03-02T12:53:17;12.15;;;11.55;;
34737;SDS011;39910;47.154;27.614;2024-03-02T12:55:42;11.85;;;11.30;;
34737;SDS011;39910;47.154;27.614;2024-03-02T12:58:16;12.02;;;11.43;;
34737;SDS011;39910;47.154;27.614;2024-03-02T13:00:43;11.25;;;10.75;;
34737;SDS011;39910;47.154;27.614;2024-03-02T13:03:08;11.52;;;11.02;;
34737;SDS011;39910;47.154;27.614;2024-03-02T13:05:34;11.60;;;11.10;;
34737;SDS011;39910;47.154;27.614;2024-03-02T13:08:00;11.02;;;10.52;;
34737;SDS011;39910;47.154;27.614;2024-03-02T13:10:28;12.38;;;11.80;;
34737;SDS011;39910;47.154;27.614;2024-03-02T13:12:53;11.35;;;10.85;;
34737;SDS011;39910;47.154;27.614;2024-03-02T13:15:19;11.32;;;10.82;;
34737;SDS011;39910;47.154;27.614;2024-03-02T13:17:44;11.30;;;10.80;;
34737;SDS011;39910;47.154;27.614;2024-03-02T13:20:11;11.73;;;11.23;;
34737;SDS011;39910;47.154;27.614;2024-03-02T13:22:36;11.68;;;11.18;;
34737;SDS011;39910;47.154;27.614;2024-03-02T13:25:02;11.50;;;11.00;;
34737;SDS011;39910;47.154;27.614;2024-03-02T13:27:30;12.02;;;11.43;;
34737;SDS011;39910;47.154;27.614;2024-03-02T13:29:57;11.48;;;10.98;;
34737;SDS011;39910;47.154;27.614;2024-03-02T13:32:22;12.05;;;11.45;;
34737;SDS011;39910;47.154;27.614;2024-03-02T13:34:49;11.70;;;11.20;;
34737;SDS011;39910;47.154;27.614;2024-03-02T13:37:14;12.00;;;11.40;;
34737;SDS011;39910;47.154;27.614;2024-03-02T13:39:40;11.60;;;11.10;;
34737;SDS011;39910;47.154;27.614;2024-03-02T13:42:07;11.57;;;11.07;;
34737;SDS011;39910;47.154;27.614;2024-03-02T13:44:33;11.52;;;11.02;;
34737;SDS011;39910;47.154;27.614;2024-03-02T13:46:59;11.70;;;11.20;;
34737;SDS011;39910;47.154;27.614;2024-03-02T13:49:25;11.88;;;11.30;;
34737;SDS011;39910;47.154;27.614;2024-03-02T13:51:58;11.70;;;11.20;;
34737;SDS011;39910;47.154;27.614;2024-03-02T13:54:25;11.90;;;11.32;;
34737;SDS011;39910;47.154;27.614;2024-03-02T13:56:51;11.60;;;11.10;;
34737;SDS011;39910;47.154;27.614;2024-03-02T13:59:17;11.52;;;11.02;;
34737;SDS011;39910;47.154;27.614;2024-03-02T14:01:42;11.30;;;10.80;;
34737;SDS011;39910;47.154;27.614;2024-03-02T14:04:08;11.52;;;11.02;;
34737;SDS011;39910;47.154;27.614;2024-03-02T14:06:33;11.40;;;10.90;;
34737;SDS011;39910;47.154;27.614;2024-03-02T14:08:59;11.40;;;10.90;;